createdAt,value
2019-01-30T00:00:39.780Z,-2.66
2019-01-30T00:01:39.762Z,-2.71
2019-01-30T00:02:39.742Z,-2.66
2019-01-30T00:03:39.718Z,-2.63
2019-01-30T00:04:39.695Z,-2.64
2019-01-30T00:05:39.674Z,-2.58
2019-01-30T00:06:39.654Z,-2.60
2019-01-30T00:07:39.630Z,-2.55
2019-01-30T00:08:39.610Z,-2.60
2019-01-30T00:09:39.584Z,-2.53
2019-01-30T00:10:39.569Z,-2.63
2019-01-30T00:11:39.548Z,-2.66
2019-01-30T00:12:39.537Z,-2.64
2019-01-30T00:13:39.503Z,-2.68
2019-01-30T00:14:39.480Z,-2.73
2019-01-30T00:15:39.464Z,-2.63
2019-01-30T00:16:39.438Z,-2.68
2019-01-30T00:17:39.419Z,-2.61
2019-01-30T00:18:39.391Z,-2.68
2019-01-30T00:19:39.372Z,-2.70
2019-01-30T00:20:39.357Z,-2.73
2019-01-30T00:21:39.338Z,-2.63
2019-01-30T00:22:39.309Z,-2.61
2019-01-30T00:23:39.291Z,-2.60
2019-01-30T00:24:39.275Z,-2.61
2019-01-30T00:25:39.244Z,-2.60
2019-01-30T00:26:39.228Z,-2.49
2019-01-30T00:27:39.208Z,-2.50
2019-01-30T00:28:39.181Z,-2.37
2019-01-30T00:29:39.158Z,-2.35
2019-01-30T00:30:39.142Z,-2.30
2019-01-30T00:31:39.119Z,-2.27
2019-01-30T00:32:39.099Z,-2.20
2019-01-30T00:33:39.079Z,-2.29
2019-01-30T00:34:39.058Z,-2.18
2019-01-30T00:35:39.036Z,-2.18
2019-01-30T00:36:39.014Z,-2.15
2019-01-30T00:37:38.995Z,-2.10
2019-01-30T00:38:38.972Z,-2.12
2019-01-30T00:39:38.954Z,-2.16
2019-01-30T00:40:38.928Z,-2.27
2019-01-30T00:41:38.908Z,-2.24
2019-01-30T00:42:38.886Z,-2.24
2019-01-30T00:43:38.863Z,-2.26
2019-01-30T00:44:38.848Z,-2.24
2019-01-30T00:45:38.821Z,-2.37
2019-01-30T00:46:38.804Z,-2.50
2019-01-30T00:47:38.782Z,-2.48
2019-01-30T00:48:38.758Z,-2.52
2019-01-30T00:49:38.746Z,-2.52
2019-01-30T00:50:38.718Z,-2.50
2019-01-30T00:51:38.696Z,-2.50
2019-01-30T00:52:38.676Z,-2.46
2019-01-30T00:53:38.652Z,-2.39
2019-01-30T00:54:38.632Z,-2.39
2019-01-30T00:55:38.614Z,-2.32
2019-01-30T00:56:38.592Z,-2.23
2019-01-30T00:57:38.573Z,-2.26
2019-01-30T00:58:38.545Z,-2.26
2019-01-30T00:59:38.528Z,-2.26
2019-01-30T01:00:38.506Z,-2.21
2019-01-30T01:01:38.488Z,-2.20
2019-01-30T01:02:38.466Z,-2.10
2019-01-30T01:03:38.454Z,-2.16
2019-01-30T01:04:38.422Z,-2.18
2019-01-30T01:05:38.405Z,-2.10
2019-01-30T01:06:38.380Z,-2.09
2019-01-30T01:07:38.358Z,-2.13
2019-01-30T01:08:38.336Z,-2.15
2019-01-30T01:09:38.316Z,-2.20
2019-01-30T01:10:38.298Z,-2.18
2019-01-30T01:11:38.274Z,-2.10
2019-01-30T01:12:38.254Z,-2.15
2019-01-30T01:13:38.238Z,-2.20
2019-01-30T01:14:38.215Z,-2.06
2019-01-30T01:15:38.188Z,-2.15
2019-01-30T01:16:38.169Z,-2.13
2019-01-30T01:17:38.150Z,-2.03
2019-01-30T01:18:38.130Z,-2.18
2019-01-30T01:19:38.128Z,-2.12
2019-01-30T01:20:38.086Z,-2.06
2019-01-30T01:21:38.062Z,-2.03
2019-01-30T01:22:38.048Z,-2.12
2019-01-30T01:23:38.027Z,-2.09
2019-01-30T01:24:38.008Z,-2.13
2019-01-30T01:25:37.981Z,-2.09
2019-01-30T01:26:37.958Z,-2.06
2019-01-30T01:27:37.938Z,-2.09
2019-01-30T01:28:37.921Z,-2.06
2019-01-30T01:29:37.900Z,-2.08
2019-01-30T01:30:37.876Z,-2.09
2019-01-30T01:31:37.854Z,-1.95
2019-01-30T01:32:37.837Z,-1.97
2019-01-30T01:33:37.812Z,-1.97
2019-01-30T01:34:37.798Z,-1.97
2019-01-30T01:35:37.774Z,-1.92
2019-01-30T01:36:37.755Z,-1.92
2019-01-30T01:37:37.732Z,-1.82
2019-01-30T01:38:37.709Z,-1.84
2019-01-30T01:39:37.690Z,-1.94
2019-01-30T01:40:37.670Z,-1.97
2019-01-30T01:41:37.649Z,-1.91
2019-01-30T01:42:37.627Z,-1.94
2019-01-30T01:43:37.600Z,-1.97
2019-01-30T01:44:37.586Z,-1.82
2019-01-30T01:45:37.566Z,-1.94
2019-01-30T01:46:37.536Z,-1.94
2019-01-30T01:47:37.523Z,-1.94
2019-01-30T01:48:37.497Z,-1.95
2019-01-30T01:49:37.476Z,-1.95
2019-01-30T01:50:37.454Z,-1.94
2019-01-30T01:51:37.438Z,-1.95
2019-01-30T01:52:37.416Z,-1.90
2019-01-30T01:53:37.396Z,-1.92
2019-01-30T01:54:37.375Z,-1.94
2019-01-30T01:55:37.354Z,-1.95
2019-01-30T01:56:37.333Z,-1.95
2019-01-30T01:57:37.319Z,-1.82
2019-01-30T01:58:37.292Z,-1.88
2019-01-30T01:59:37.271Z,-1.80
2019-01-30T02:00:37.249Z,-1.85
2019-01-30T02:01:37.224Z,-1.82
2019-01-30T02:02:37.209Z,-1.80
2019-01-30T02:03:37.190Z,-1.77
2019-01-30T02:04:37.167Z,-1.74
2019-01-30T02:05:37.148Z,-1.69
2019-01-30T02:06:37.128Z,-1.79
2019-01-30T02:07:37.108Z,-1.66
2019-01-30T02:08:37.079Z,-1.69
2019-01-30T02:09:37.058Z,-1.69
2019-01-30T02:10:37.045Z,-1.66
2019-01-30T02:11:37.029Z,-1.66
2019-01-30T02:12:37.001Z,-1.67
2019-01-30T02:13:36.976Z,-1.66
2019-01-30T02:14:36.965Z,-1.64
2019-01-30T02:15:36.933Z,-1.67
2019-01-30T02:16:36.915Z,-1.66
2019-01-30T02:17:36.895Z,-1.62
2019-01-30T02:18:36.878Z,-1.64
2019-01-30T02:19:36.854Z,-1.62
2019-01-30T02:20:36.836Z,-1.67
2019-01-30T02:21:36.813Z,-1.59
2019-01-30T02:22:36.792Z,-1.64
2019-01-30T02:23:36.768Z,-1.64
2019-01-30T02:24:36.753Z,-1.62
2019-01-30T02:25:36.738Z,-1.62
2019-01-30T02:26:36.713Z,-1.64
2019-01-30T02:27:36.696Z,-1.55
2019-01-30T02:28:36.675Z,-1.54
2019-01-30T02:29:36.650Z,-1.67
2019-01-30T02:30:46.702Z,-1.62
2019-01-30T02:31:36.607Z,-1.59
2019-01-30T02:32:36.592Z,-1.61
2019-01-30T02:33:36.574Z,-1.62
2019-01-30T02:34:36.540Z,-1.66
2019-01-30T02:35:36.528Z,-1.59
2019-01-30T02:36:36.517Z,-1.62
2019-01-30T02:37:36.487Z,-1.66
2019-01-30T02:38:36.462Z,-1.61
2019-01-30T02:39:36.441Z,-1.51
2019-01-30T02:40:36.423Z,-1.54
2019-01-30T02:41:36.398Z,-1.62
2019-01-30T02:42:36.389Z,-1.59
2019-01-30T02:43:36.363Z,-1.55
2019-01-30T02:44:36.344Z,-1.48
2019-01-30T02:45:36.336Z,-1.52
2019-01-30T02:46:36.297Z,-1.58
2019-01-30T02:47:36.283Z,-1.58
2019-01-30T02:48:36.262Z,-1.58
2019-01-30T02:49:36.232Z,-1.48
2019-01-30T02:50:36.215Z,-1.52
2019-01-30T02:51:36.198Z,-1.58
2019-01-30T02:52:36.183Z,-1.48
2019-01-30T02:53:36.160Z,-1.46
2019-01-30T02:54:36.138Z,-1.54
2019-01-30T02:55:36.114Z,-1.45
2019-01-30T02:56:36.095Z,-1.40
2019-01-30T02:57:36.075Z,-1.46
2019-01-30T02:58:36.051Z,-1.41
2019-01-30T02:59:36.035Z,-1.51
2019-01-30T03:00:36.010Z,-1.52
2019-01-30T03:01:35.985Z,-1.49
2019-01-30T03:02:35.975Z,-1.51
2019-01-30T03:03:35.948Z,-1.48
2019-01-30T03:04:35.951Z,-1.48
2019-01-30T03:05:35.943Z,-1.51
2019-01-30T03:06:35.893Z,-1.48
2019-01-30T03:07:35.877Z,-1.41
2019-01-30T03:08:35.849Z,-1.41
2019-01-30T03:09:35.828Z,-1.38
2019-01-30T03:10:35.809Z,-1.35
2019-01-30T03:11:35.787Z,-1.38
2019-01-30T03:12:35.777Z,-1.31
2019-01-30T03:13:35.742Z,-1.45
2019-01-30T03:14:35.731Z,-1.35
2019-01-30T03:15:35.735Z,-1.38
2019-01-30T03:16:35.681Z,-1.48
2019-01-30T03:17:35.668Z,-1.48
2019-01-30T03:18:35.653Z,-1.46
2019-01-30T03:19:35.619Z,-1.48
2019-01-30T03:20:35.599Z,-1.35
2019-01-30T03:21:35.584Z,-1.35
2019-01-30T03:22:35.563Z,-1.45
2019-01-30T03:23:35.539Z,-1.46
2019-01-30T03:24:35.522Z,-1.45
2019-01-30T03:25:35.499Z,-1.43
2019-01-30T03:26:35.479Z,-1.49
2019-01-30T03:27:35.456Z,-1.49
2019-01-30T03:28:35.442Z,-1.52
2019-01-30T03:29:35.419Z,-1.48
2019-01-30T03:30:35.399Z,-1.41
2019-01-30T03:31:35.381Z,-1.41
2019-01-30T03:32:35.366Z,-1.51
2019-01-30T03:33:35.338Z,-1.51
2019-01-30T03:34:35.322Z,-1.45
2019-01-30T03:35:35.298Z,-1.49
2019-01-30T03:36:35.277Z,-1.52
2019-01-30T03:37:35.256Z,-1.45
2019-01-30T03:38:35.238Z,-1.48
2019-01-30T03:39:35.218Z,-1.46
2019-01-30T03:40:35.191Z,-1.52
2019-01-30T03:41:35.176Z,-1.55
2019-01-30T03:42:35.145Z,-1.56
2019-01-30T03:43:35.128Z,-1.62
2019-01-30T03:44:35.113Z,-1.59
2019-01-30T03:45:35.092Z,-1.59
2019-01-30T03:46:35.070Z,-1.56
2019-01-30T03:47:35.048Z,-1.69
2019-01-30T03:48:35.030Z,-1.62
2019-01-30T03:49:35.004Z,-1.67
2019-01-30T03:50:34.991Z,-1.76
2019-01-30T03:51:34.976Z,-1.69
2019-01-30T03:52:34.958Z,-1.76
2019-01-30T03:53:34.923Z,-1.67
2019-01-30T03:54:34.909Z,-1.66
2019-01-30T03:55:34.887Z,-1.67
2019-01-30T03:56:34.865Z,-1.74
2019-01-30T03:57:34.843Z,-1.74
2019-01-30T03:58:34.832Z,-1.69
2019-01-30T03:59:34.805Z,-1.77
2019-01-30T04:00:34.791Z,-1.76
2019-01-30T04:01:34.763Z,-1.72
2019-01-30T04:02:34.740Z,-1.74
2019-01-30T04:03:34.716Z,-1.76
2019-01-30T04:04:34.697Z,-1.76
2019-01-30T04:05:34.680Z,-1.80
2019-01-30T04:06:34.660Z,-1.79
2019-01-30T04:07:34.643Z,-1.76
2019-01-30T04:08:34.619Z,-1.76
2019-01-30T04:09:34.599Z,-1.76
2019-01-30T04:10:34.575Z,-1.74
2019-01-30T04:11:34.561Z,-1.76
2019-01-30T04:12:34.536Z,-1.74
2019-01-30T04:13:34.506Z,-1.73
2019-01-30T04:14:34.495Z,-1.69
2019-01-30T04:15:34.472Z,-1.73
2019-01-30T04:16:34.455Z,-1.70
2019-01-30T04:17:34.433Z,-1.73
2019-01-30T04:18:34.408Z,-1.74
2019-01-30T04:19:34.389Z,-1.76
2019-01-30T04:20:34.367Z,-1.77
2019-01-30T04:21:34.350Z,-1.74
2019-01-30T04:22:34.326Z,-1.74
2019-01-30T04:23:34.304Z,-1.77
2019-01-30T04:24:34.286Z,-1.76
2019-01-30T04:25:34.267Z,-1.79
2019-01-30T04:26:34.247Z,-1.77
2019-01-30T04:27:34.226Z,-1.76
2019-01-30T04:28:34.204Z,-1.79
2019-01-30T04:29:34.182Z,-1.72
2019-01-30T04:30:34.159Z,-1.77
2019-01-30T04:31:38.241Z,-1.77
2019-01-30T04:32:34.127Z,-1.85
2019-01-30T04:33:34.099Z,-1.77
2019-01-30T04:34:34.086Z,-1.74
2019-01-30T04:35:34.060Z,-1.76
2019-01-30T04:36:34.047Z,-1.74
2019-01-30T04:37:34.017Z,-1.80
2019-01-30T04:38:33.997Z,-1.91
2019-01-30T04:39:33.974Z,-1.82
2019-01-30T04:40:33.956Z,-1.77
2019-01-30T04:41:33.935Z,-1.76
2019-01-30T04:42:33.914Z,-1.77
2019-01-30T04:43:33.896Z,-1.88
2019-01-30T04:44:33.872Z,-1.82
2019-01-30T04:45:33.864Z,-1.74
2019-01-30T04:46:33.833Z,-1.80
2019-01-30T04:47:33.812Z,-1.91
2019-01-30T04:48:33.791Z,-1.79
2019-01-30T04:49:33.766Z,-1.77
2019-01-30T04:50:33.744Z,-1.79
2019-01-30T04:51:33.730Z,-1.82
2019-01-30T04:52:33.708Z,-1.94
2019-01-30T04:53:33.687Z,-1.92
2019-01-30T04:54:33.667Z,-1.94
2019-01-30T04:55:33.641Z,-1.97
2019-01-30T04:56:33.623Z,-1.92
2019-01-30T04:57:33.603Z,-1.90
2019-01-30T04:58:33.586Z,-1.94
2019-01-30T04:59:33.561Z,-1.88
2019-01-30T05:00:33.546Z,-1.91
2019-01-30T05:01:33.522Z,-1.92
2019-01-30T05:02:33.500Z,-1.98
2019-01-30T05:03:33.479Z,-2.00
2019-01-30T05:04:33.460Z,-2.02
2019-01-30T05:05:33.441Z,-1.91
2019-01-30T05:06:33.417Z,-1.90
2019-01-30T05:07:33.403Z,-1.92
2019-01-30T05:08:33.377Z,-1.95
2019-01-30T05:09:33.354Z,-1.97
2019-01-30T05:10:33.338Z,-1.92
2019-01-30T05:11:33.312Z,-1.94
2019-01-30T05:12:33.294Z,-1.97
2019-01-30T05:13:33.275Z,-1.98
2019-01-30T05:14:33.255Z,-1.92
2019-01-30T05:15:33.228Z,-1.97
2019-01-30T05:16:33.209Z,-1.94
2019-01-30T05:17:33.191Z,-1.92
2019-01-30T05:18:33.172Z,-2.00
2019-01-30T05:19:33.150Z,-1.88
2019-01-30T05:20:33.127Z,-1.87
2019-01-30T05:21:33.109Z,-1.94
2019-01-30T05:22:33.082Z,-1.80
2019-01-30T05:23:33.069Z,-1.85
2019-01-30T05:24:33.049Z,-1.88
2019-01-30T05:25:33.027Z,-1.92
2019-01-30T05:26:33.007Z,-1.74
2019-01-30T05:27:32.983Z,-1.84
2019-01-30T05:28:32.966Z,-1.79
2019-01-30T05:29:32.990Z,-1.82
2019-01-30T05:30:32.920Z,-1.82
2019-01-30T05:31:32.901Z,-1.79
2019-01-30T05:32:32.880Z,-1.87
2019-01-30T05:33:32.859Z,-1.82
2019-01-30T05:34:32.832Z,-1.91
2019-01-30T05:35:32.816Z,-1.79
2019-01-30T05:36:32.799Z,-1.80
2019-01-30T05:37:32.781Z,-1.76
2019-01-30T05:38:32.756Z,-1.77
2019-01-30T05:39:32.734Z,-1.74
2019-01-30T05:40:32.718Z,-1.74
2019-01-30T05:41:32.696Z,-1.79
2019-01-30T05:42:32.675Z,-1.76
2019-01-30T05:43:32.651Z,-1.73
2019-01-30T05:44:32.631Z,-1.76
2019-01-30T05:45:32.611Z,-1.79
2019-01-30T05:46:32.589Z,-1.72
2019-01-30T05:47:32.567Z,-1.79
2019-01-30T05:48:32.552Z,-1.73
2019-01-30T05:49:32.524Z,-1.76
2019-01-30T05:50:32.508Z,-1.74
2019-01-30T05:51:32.488Z,-1.74
2019-01-30T05:52:32.466Z,-1.69
2019-01-30T05:53:32.448Z,-1.79
2019-01-30T05:54:32.426Z,-1.80
2019-01-30T05:55:32.412Z,-1.76
2019-01-30T05:56:32.383Z,-1.76
2019-01-30T05:57:32.370Z,-1.76
2019-01-30T05:58:32.343Z,-1.77
2019-01-30T05:59:32.325Z,-1.70
2019-01-30T06:00:32.303Z,-1.79
2019-01-30T06:01:32.284Z,-1.74
2019-01-30T06:02:32.263Z,-1.70
2019-01-30T06:03:32.249Z,-1.76
2019-01-30T06:04:32.217Z,-1.70
2019-01-30T06:05:32.196Z,-1.84
2019-01-30T06:06:32.191Z,-1.76
2019-01-30T06:07:32.160Z,-1.77
2019-01-30T06:08:32.132Z,-1.79
2019-01-30T06:09:32.118Z,-1.74
2019-01-30T06:10:32.097Z,-1.73
2019-01-30T06:11:32.070Z,-1.76
2019-01-30T06:12:32.047Z,-1.79
2019-01-30T06:13:32.035Z,-1.79
2019-01-30T06:14:32.119Z,-1.84
2019-01-30T06:15:31.995Z,-1.79
2019-01-30T06:16:31.974Z,-1.79
2019-01-30T06:17:31.950Z,-1.91
2019-01-30T06:18:31.931Z,-1.85
2019-01-30T06:19:31.914Z,-1.80
2019-01-30T06:20:31.887Z,-1.82
2019-01-30T06:21:31.876Z,-1.76
2019-01-30T06:22:31.844Z,-1.77
2019-01-30T06:23:31.830Z,-1.79
2019-01-30T06:24:31.806Z,-1.82
2019-01-30T06:25:31.791Z,-1.80
2019-01-30T06:26:31.766Z,-1.90
2019-01-30T06:27:31.741Z,-1.77
2019-01-30T06:28:31.720Z,-1.77
2019-01-30T06:29:31.702Z,-1.79
2019-01-30T06:30:31.683Z,-1.79
2019-01-30T06:31:31.665Z,-1.76
2019-01-30T06:32:31.640Z,-1.77
2019-01-30T06:33:31.622Z,-1.76
2019-01-30T06:34:31.598Z,-1.77
2019-01-30T06:35:31.580Z,-1.74
2019-01-30T06:36:31.557Z,-1.73
2019-01-30T06:37:31.533Z,-1.74
2019-01-30T06:38:31.515Z,-1.76
2019-01-30T06:39:31.489Z,-1.82
2019-01-30T06:40:31.475Z,-1.79
2019-01-30T06:41:31.451Z,-1.77
2019-01-30T06:42:31.433Z,-1.64
2019-01-30T06:43:31.419Z,-1.69
2019-01-30T06:44:31.389Z,-1.62
2019-01-30T06:45:31.378Z,-1.67
2019-01-30T06:46:31.350Z,-1.73
2019-01-30T06:47:31.332Z,-1.76
2019-01-30T06:48:31.307Z,-1.70
2019-01-30T06:49:31.286Z,-1.77
2019-01-30T06:50:31.265Z,-1.64
2019-01-30T06:51:31.249Z,-1.69
2019-01-30T06:52:31.224Z,-1.74
2019-01-30T06:53:31.206Z,-1.67
2019-01-30T06:54:31.183Z,-1.66
2019-01-30T06:55:31.161Z,-1.62
2019-01-30T06:56:31.141Z,-1.69
2019-01-30T06:57:31.118Z,-1.66
2019-01-30T06:58:31.097Z,-1.64
2019-01-30T06:59:31.080Z,-1.66
2019-01-30T07:00:31.066Z,-1.58
2019-01-30T07:01:31.035Z,-1.61
2019-01-30T07:02:32.425Z,-1.58
2019-01-30T07:03:31.003Z,-1.55
2019-01-30T07:04:30.975Z,-1.51
2019-01-30T07:05:30.956Z,-1.54
2019-01-30T07:06:30.937Z,-1.58
2019-01-30T07:07:30.910Z,-1.54
2019-01-30T07:08:30.893Z,-1.58
2019-01-30T07:09:30.874Z,-1.48
2019-01-30T07:10:30.850Z,-1.51
2019-01-30T07:11:30.833Z,-1.52
2019-01-30T07:12:30.814Z,-1.40
2019-01-30T07:13:30.792Z,-1.46
2019-01-30T07:14:30.772Z,-1.46
2019-01-30T07:15:30.752Z,-1.49
2019-01-30T07:16:30.726Z,-1.49
2019-01-30T07:17:30.707Z,-1.46
2019-01-30T07:18:30.687Z,-1.46
2019-01-30T07:19:30.668Z,-1.40
2019-01-30T07:20:31.304Z,-1.51
2019-01-30T07:21:30.628Z,-1.37
2019-01-30T07:22:30.608Z,-1.33
2019-01-30T07:23:30.664Z,-1.38
2019-01-30T07:24:30.564Z,-1.45
2019-01-30T07:25:30.546Z,-1.52
2019-01-30T07:26:30.526Z,-1.49
2019-01-30T07:27:30.500Z,-1.48
2019-01-30T07:28:30.483Z,-1.45
2019-01-30T07:29:30.461Z,-1.56
2019-01-30T07:30:30.444Z,-1.51
2019-01-30T07:31:30.425Z,-1.56
2019-01-30T07:32:30.402Z,-1.49
2019-01-30T07:33:30.380Z,-1.54
2019-01-30T07:34:30.358Z,-1.61
2019-01-30T07:35:30.338Z,-1.55
2019-01-30T07:36:30.318Z,-1.49
2019-01-30T07:37:30.296Z,-1.52
2019-01-30T07:38:30.276Z,-1.37
2019-01-30T07:39:30.254Z,-1.45
2019-01-30T07:40:30.234Z,-1.41
2019-01-30T07:41:30.222Z,-1.30
2019-01-30T07:42:30.206Z,-1.28
2019-01-30T07:43:30.181Z,-1.20
2019-01-30T07:44:30.155Z,-1.23
2019-01-30T07:45:30.136Z,-1.19
2019-01-30T07:46:30.179Z,-1.13
2019-01-30T07:47:30.101Z,-1.10
2019-01-30T07:48:30.075Z,-1.05
2019-01-30T07:49:30.052Z,-1.01
2019-01-30T07:50:30.036Z,-1.05
2019-01-30T07:51:30.014Z,-1.05
2019-01-30T07:52:32.672Z,-1.04
2019-01-30T07:53:29.978Z,-1.05
2019-01-30T07:54:29.954Z,-1.01
2019-01-30T07:55:29.936Z,-1.01
2019-01-30T07:56:29.919Z,-1.01
2019-01-30T07:57:29.897Z,-0.95
2019-01-30T07:58:29.875Z,-0.95
2019-01-30T07:59:31.979Z,-0.83
2019-01-30T08:00:29.841Z,-0.76
2019-01-30T08:01:29.813Z,-0.78
2019-01-30T08:02:29.804Z,-0.78
2019-01-30T08:03:29.777Z,-0.78
2019-01-30T08:04:29.758Z,-0.73
2019-01-30T08:05:29.740Z,-0.70
2019-01-30T08:06:29.722Z,-0.61
2019-01-30T08:07:29.693Z,-0.67
2019-01-30T08:08:29.680Z,-0.54
2019-01-30T08:09:29.650Z,-0.55
2019-01-30T08:10:29.634Z,-0.42
2019-01-30T08:11:29.612Z,-0.44
2019-01-30T08:12:29.588Z,-0.40
2019-01-30T08:13:29.573Z,-0.43
2019-01-30T08:14:29.559Z,-0.44
2019-01-30T08:15:29.533Z,-0.37
2019-01-30T08:16:29.515Z,-0.42
2019-01-30T08:17:29.495Z,-0.31
2019-01-30T08:18:29.477Z,-0.34
2019-01-30T08:19:29.452Z,-0.37
2019-01-30T08:20:29.435Z,-0.29
2019-01-30T08:21:29.421Z,-0.26
2019-01-30T08:22:29.398Z,-0.26
2019-01-30T08:23:29.630Z,-0.16
2019-01-30T08:24:29.470Z,-0.15
2019-01-30T08:25:29.540Z,-0.16
2019-01-30T08:26:29.316Z,-0.10
2019-01-30T08:27:29.522Z,-0.04
2019-01-30T08:28:29.302Z,-0.01
2019-01-30T08:29:29.574Z,0.02
2019-01-30T08:30:29.469Z,0.07
2019-01-30T08:31:29.574Z,0.04
2019-01-30T08:32:29.410Z,0.13
2019-01-30T08:33:29.218Z,0.17
2019-01-30T08:34:29.156Z,0.11
2019-01-30T08:35:29.148Z,0.20
2019-01-30T08:36:29.119Z,0.23
2019-01-30T08:37:29.103Z,0.28
2019-01-30T08:38:29.085Z,0.28
2019-01-30T08:39:29.061Z,0.38
2019-01-30T08:40:29.039Z,0.33
2019-01-30T08:41:29.027Z,0.36
2019-01-30T08:42:29.003Z,0.46
2019-01-30T08:43:28.986Z,0.42
2019-01-30T08:44:28.971Z,0.38
2019-01-30T08:45:28.946Z,0.47
2019-01-30T08:46:28.924Z,0.42
2019-01-30T08:47:28.910Z,0.50
2019-01-30T08:48:30.253Z,0.51
2019-01-30T08:49:28.868Z,0.55
2019-01-30T08:50:28.929Z,0.65
2019-01-30T08:51:28.830Z,0.76
2019-01-30T08:52:28.812Z,0.79
2019-01-30T08:53:28.793Z,0.69
2019-01-30T08:54:28.771Z,0.78
2019-01-30T08:55:28.759Z,0.90
2019-01-30T08:56:28.735Z,0.90
2019-01-30T08:57:28.718Z,0.90
2019-01-30T08:58:28.703Z,0.97
2019-01-30T08:59:28.680Z,1.06
2019-01-30T09:00:28.655Z,1.12
2019-01-30T09:01:28.636Z,1.16
2019-01-30T09:02:28.620Z,1.20
2019-01-30T09:03:28.600Z,1.26
2019-01-30T09:04:28.578Z,1.34
2019-01-30T09:05:28.560Z,1.50
2019-01-30T09:06:28.543Z,1.44
2019-01-30T09:07:28.523Z,1.54
2019-01-30T09:08:28.501Z,1.59
2019-01-30T09:09:28.488Z,1.62
2019-01-30T09:10:28.470Z,1.73
2019-01-30T09:11:28.446Z,1.70
2019-01-30T09:12:28.428Z,1.80
2019-01-30T09:13:28.414Z,1.84
2019-01-30T09:14:28.395Z,1.80
2019-01-30T09:15:28.376Z,1.87
2019-01-30T09:16:28.356Z,1.98
2019-01-30T09:17:28.335Z,2.00
2019-01-30T09:18:28.318Z,2.09
2019-01-30T09:19:28.298Z,2.16
2019-01-30T09:20:28.281Z,2.18
2019-01-30T09:21:28.263Z,2.25
2019-01-30T09:22:28.245Z,2.30
2019-01-30T09:23:28.227Z,2.31
2019-01-30T09:24:28.217Z,2.43
2019-01-30T09:25:28.188Z,2.43
2019-01-30T09:26:28.170Z,2.46
2019-01-30T09:27:28.154Z,2.53
2019-01-30T09:28:28.135Z,2.63
2019-01-30T09:29:28.117Z,2.61
2019-01-30T09:30:28.097Z,2.54
2019-01-30T09:31:28.078Z,2.67
2019-01-30T09:32:28.062Z,2.69
2019-01-30T09:33:28.042Z,2.74
2019-01-30T09:34:28.023Z,2.79
2019-01-30T09:35:28.010Z,2.74
2019-01-30T09:36:27.989Z,2.85
2019-01-30T09:37:27.974Z,2.85
2019-01-30T09:38:27.965Z,2.96
2019-01-30T09:39:27.960Z,2.99
2019-01-30T09:40:27.920Z,3.05
2019-01-30T09:41:27.899Z,3.03
2019-01-30T09:42:27.881Z,3.10
2019-01-30T09:43:27.869Z,3.15
2019-01-30T09:44:27.840Z,3.24
2019-01-30T09:45:27.827Z,3.42
2019-01-30T09:46:27.811Z,3.40
2019-01-30T09:47:27.812Z,3.55
2019-01-30T09:48:27.785Z,3.60
2019-01-30T09:49:27.854Z,3.68
2019-01-30T09:50:27.734Z,3.61
2019-01-30T09:51:27.725Z,3.60
2019-01-30T09:52:27.705Z,3.76
2019-01-30T09:53:27.689Z,3.83
2019-01-30T09:54:27.682Z,3.76
2019-01-30T09:55:27.655Z,3.83
2019-01-30T09:56:27.632Z,3.65
2019-01-30T09:57:27.622Z,3.47
2019-01-30T09:58:27.601Z,3.23
2019-01-30T09:59:27.585Z,3.18
2019-01-30T10:00:27.567Z,3.17
2019-01-30T10:01:27.547Z,3.23
2019-01-30T10:02:27.531Z,3.21
2019-01-30T10:03:36.121Z,3.32
2019-01-30T10:04:27.507Z,3.29
2019-01-30T10:05:27.481Z,3.40
2019-01-30T10:06:27.459Z,3.40
2019-01-30T10:07:27.440Z,3.43
2019-01-30T10:08:27.432Z,3.66
2019-01-30T10:09:27.412Z,3.61
2019-01-30T10:10:27.395Z,3.72
2019-01-30T10:11:27.374Z,3.80
2019-01-30T10:12:27.362Z,3.84
2019-01-30T10:13:27.339Z,3.84
2019-01-30T10:14:27.319Z,3.94
2019-01-30T10:15:27.307Z,3.98
2019-01-30T10:16:27.291Z,4.02
2019-01-30T10:17:27.272Z,3.97
2019-01-30T10:18:27.263Z,3.97
2019-01-30T10:19:27.240Z,3.79
2019-01-30T10:20:27.222Z,3.75
2019-01-30T10:21:27.207Z,3.79
2019-01-30T10:22:27.196Z,3.78
2019-01-30T10:23:27.180Z,3.79
2019-01-30T10:24:29.038Z,3.94
2019-01-30T10:25:27.131Z,3.88
2019-01-30T10:26:27.122Z,3.94
2019-01-30T10:27:27.104Z,4.06
2019-01-30T10:28:27.083Z,4.12
2019-01-30T10:29:27.073Z,4.30
2019-01-30T10:30:27.055Z,4.40
2019-01-30T10:31:27.049Z,4.34
2019-01-30T10:32:27.023Z,4.44
2019-01-30T10:33:26.997Z,4.60
2019-01-30T10:34:26.987Z,4.60
2019-01-30T10:35:26.970Z,4.72
2019-01-30T10:36:26.971Z,4.85
2019-01-30T10:37:26.934Z,4.86
2019-01-30T10:38:26.921Z,4.97
2019-01-30T10:39:26.904Z,5.02
2019-01-30T10:40:26.896Z,4.99
2019-01-30T10:41:26.870Z,5.03
2019-01-30T10:42:26.852Z,5.09
2019-01-30T10:43:26.849Z,5.04
2019-01-30T10:44:26.820Z,5.07
2019-01-30T10:45:26.803Z,5.10
2019-01-30T10:46:26.782Z,5.12
2019-01-30T10:47:26.782Z,5.12
2019-01-30T10:48:26.759Z,5.13
2019-01-30T10:49:26.746Z,5.21
2019-01-30T10:50:26.727Z,5.22
2019-01-30T10:51:26.705Z,5.25
2019-01-30T10:52:26.688Z,5.21
2019-01-30T10:53:26.679Z,5.36
2019-01-30T10:54:26.662Z,5.38
2019-01-30T10:55:26.647Z,5.42
2019-01-30T10:56:26.710Z,5.48
2019-01-30T10:57:26.610Z,5.58
2019-01-30T10:58:26.592Z,5.58
2019-01-30T10:59:26.794Z,5.68
2019-01-30T11:00:26.564Z,5.64
2019-01-30T11:01:26.550Z,5.57
2019-01-30T11:02:26.531Z,5.65
2019-01-30T11:03:26.519Z,5.63
2019-01-30T11:04:26.499Z,5.67
2019-01-30T11:05:26.484Z,5.74
2019-01-30T11:06:26.506Z,5.82
2019-01-30T11:07:26.457Z,5.76
2019-01-30T11:08:26.436Z,5.83
2019-01-30T11:09:26.419Z,5.78
2019-01-30T11:10:26.401Z,5.90
2019-01-30T11:11:26.385Z,5.96
2019-01-30T11:12:26.369Z,5.97
2019-01-30T11:13:26.353Z,6.00
2019-01-30T11:14:26.341Z,6.06
2019-01-30T11:15:26.329Z,6.09
2019-01-30T11:16:26.306Z,6.18
2019-01-30T11:17:26.292Z,6.22
2019-01-30T11:18:26.281Z,6.34
2019-01-30T11:19:26.254Z,6.38
2019-01-30T11:20:26.247Z,6.40
2019-01-30T11:21:26.225Z,6.54
2019-01-30T11:22:26.213Z,6.46
2019-01-30T11:23:26.196Z,6.54
2019-01-30T11:24:26.188Z,6.52
2019-01-30T11:25:26.173Z,6.51
2019-01-30T11:26:26.153Z,6.56
2019-01-30T11:27:26.152Z,6.52
2019-01-30T11:28:26.116Z,6.46
2019-01-30T11:29:26.103Z,6.49
2019-01-30T11:30:26.090Z,6.51
2019-01-30T11:31:26.073Z,6.62
2019-01-30T11:32:26.066Z,6.55
2019-01-30T11:33:26.041Z,6.59
2019-01-30T11:34:26.025Z,6.49
2019-01-30T11:35:26.012Z,6.55
2019-01-30T11:36:25.993Z,6.52
2019-01-30T11:37:25.983Z,6.54
2019-01-30T11:38:25.976Z,6.52
2019-01-30T11:39:25.950Z,6.44
2019-01-30T11:40:25.933Z,6.41
2019-01-30T11:41:25.921Z,6.52
2019-01-30T11:42:25.908Z,6.58
2019-01-30T11:43:25.890Z,6.70
2019-01-30T11:44:27.877Z,6.73
2019-01-30T11:45:25.853Z,6.76
2019-01-30T11:46:25.845Z,6.91
2019-01-30T11:47:25.827Z,6.91
2019-01-30T11:48:25.810Z,6.98
2019-01-30T11:49:25.803Z,6.97
2019-01-30T11:50:25.785Z,7.09
2019-01-30T11:51:25.769Z,6.95
2019-01-30T11:52:25.754Z,7.09
2019-01-30T11:53:25.745Z,7.13
2019-01-30T11:54:25.723Z,7.10
2019-01-30T11:55:25.706Z,7.16
2019-01-30T11:56:25.692Z,7.21
2019-01-30T11:57:25.677Z,7.16
2019-01-30T11:58:25.661Z,7.27
2019-01-30T11:59:25.652Z,7.25
2019-01-30T12:00:25.630Z,7.30
2019-01-30T12:01:25.628Z,7.39
2019-01-30T12:02:25.602Z,7.35
2019-01-30T12:03:25.584Z,7.46
2019-01-30T12:04:25.570Z,7.49
2019-01-30T12:05:25.560Z,7.48
2019-01-30T12:06:25.543Z,7.69
2019-01-30T12:07:25.534Z,7.68
2019-01-30T12:08:25.509Z,7.64
2019-01-30T12:09:25.511Z,7.77
2019-01-30T12:10:25.487Z,7.90
2019-01-30T12:11:25.470Z,7.98
2019-01-30T12:12:25.454Z,8.15
2019-01-30T12:13:25.437Z,8.22
2019-01-30T12:14:25.426Z,8.29
2019-01-30T12:15:25.402Z,8.33
2019-01-30T12:16:25.395Z,8.28
2019-01-30T12:17:25.380Z,8.30
2019-01-30T12:18:25.365Z,8.36
2019-01-30T12:19:25.353Z,8.38
2019-01-30T12:20:25.336Z,8.34
2019-01-30T12:21:25.324Z,8.26
2019-01-30T12:22:25.304Z,8.19
2019-01-30T12:23:25.297Z,8.16
2019-01-30T12:24:25.280Z,8.02
2019-01-30T12:25:25.267Z,7.90
2019-01-30T12:26:25.250Z,7.80
2019-01-30T12:27:25.238Z,7.71
2019-01-30T12:28:25.222Z,7.50
2019-01-30T12:29:25.209Z,7.32
2019-01-30T12:30:25.196Z,7.23
2019-01-30T12:31:25.184Z,7.20
2019-01-30T12:32:25.174Z,6.91
2019-01-30T12:33:25.146Z,6.74
2019-01-30T12:34:28.280Z,6.55
2019-01-30T12:35:25.229Z,6.43
2019-01-30T12:36:25.108Z,6.14
2019-01-30T12:37:25.088Z,6.03
2019-01-30T12:38:25.070Z,5.94
2019-01-30T12:39:25.061Z,5.91
2019-01-30T12:40:25.048Z,5.94
2019-01-30T12:41:25.034Z,6.03
2019-01-30T12:42:25.013Z,6.12
2019-01-30T12:43:25.005Z,6.14
2019-01-30T12:44:24.987Z,6.17
2019-01-30T12:45:24.974Z,6.18
2019-01-30T12:46:26.875Z,6.08
2019-01-30T12:47:24.944Z,6.11
2019-01-30T12:48:24.934Z,6.08
2019-01-30T12:49:24.918Z,6.08
2019-01-30T12:50:24.891Z,6.08
2019-01-30T12:51:24.882Z,6.11
2019-01-30T12:52:24.901Z,6.15
2019-01-30T12:53:24.852Z,6.19
2019-01-30T12:54:24.843Z,6.36
2019-01-30T12:55:24.817Z,6.34
2019-01-30T12:56:24.808Z,6.21
2019-01-30T12:57:24.791Z,6.15
2019-01-30T12:58:24.776Z,5.99
2019-01-30T12:59:24.770Z,5.82
2019-01-30T13:00:24.746Z,5.63
2019-01-30T13:01:24.734Z,5.58